Time;durP1;ratioP1;P1;durP2;ratioP2;P2;SDS_P1;SDS_P2;PMS_P1;PMS_P2;Temp;Humidity;BMP_temperature;BMP_pressure;BME280_temperature;BME280_humidity;BME280_pressure;Samples;Min_cycle;Max_cycle;Signal;HPM_P1;HPM_P2
2021/05/29 00:00:54;;;;;;;12.97;7.23;;;;;;;8.29;90.88;101607.38;5013658;28;20168;-69
2021/05/29 00:03:21;;;;;;;9.80;6.70;;;;;;;8.22;91.28;101613.81;4996230;28;20216;-70
2021/05/29 00:05:46;;;;;;;10.77;6.53;;;;;;;8.22;91.54;101607.63;4979774;28;20259;-69
2021/05/29 00:08:12;;;;;;;15.87;7.10;;;;;;;8.16;91.82;101608.66;4996158;28;20264;-70
2021/05/29 00:10:39;;;;;;;14.03;6.87;;;;;;;8.13;92.22;101606.97;5013604;28;20180;-71
2021/05/29 00:13:04;;;;;;;12.10;7.43;;;;;;;8.12;92.54;101607.88;4979735;28;20203;-71
2021/05/29 00:15:30;;;;;;;14.03;7.00;;;;;;;8.14;92.72;101600.72;5013344;28;20196;-69
2021/05/29 00:17:55;;;;;;;13.23;7.10;;;;;;;8.24;92.11;101606.66;4995685;28;20255;-71
2021/05/29 00:20:21;;;;;;;11.53;6.83;;;;;;;8.28;92.25;101607.44;4995653;28;20175;-71
2021/05/29 00:22:47;;;;;;;14.20;7.10;;;;;;;8.30;92.17;101609.13;4995817;28;20200;-70
2021/05/29 00:25:12;;;;;;;10.57;7.00;;;;;;;8.32;92.36;101598.44;4995884;28;20171;-70
2021/05/29 00:27:38;;;;;;;13.70;7.27;;;;;;;8.29;92.37;101596.75;5013242;28;20169;-70
2021/05/29 00:30:05;;;;;;;14.73;7.33;;;;;;;8.26;92.57;101594.19;4995660;28;20184;-70
2021/05/29 00:32:30;;;;;;;16.00;7.93;;;;;;;8.25;93.34;101597.75;4979262;28;20204;-70
2021/05/29 00:34:55;;;;;;;12.47;7.20;;;;;;;8.28;92.68;101592.34;4996320;28;20188;-70
2021/05/29 00:37:21;;;;;;;18.33;7.23;;;;;;;8.20;93.22;101588.19;5013217;28;20266;-71
2021/05/29 00:39:47;;;;;;;15.90;8.13;;;;;;;8.12;94.03;101589.28;4995434;28;20183;-70
2021/05/29 00:42:13;;;;;;;13.13;7.47;;;;;;;8.09;93.92;101580.53;5012939;28;20259;-70
2021/05/29 00:44:53;;;;;;;15.67;7.93;;;;;;;8.15;93.83;101581.19;5013253;28;20177;-71
2021/05/29 00:47:23;;;;;;;17.10;8.10;;;;;;;8.15;94.05;101588.31;5013258;28;20178;-71
2021/05/29 00:49:49;;;;;;;14.80;7.13;;;;;;;8.06;94.14;101586.81;5013202;28;20263;-71
2021/05/29 00:52:15;;;;;;;16.47;8.07;;;;;;;8.00;94.99;101591.44;4995589;28;20250;-71
2021/05/29 00:54:42;;;;;;;15.33;7.87;;;;;;;7.99;95.26;101590.56;4995822;28;20180;-70
2021/05/29 00:57:09;;;;;;;16.93;8.70;;;;;;;8.12;94.71;101599.03;5013234;28;20221;-70
2021/05/29 00:59:34;;;;;;;16.30;7.90;;;;;;;8.08;94.46;101602.72;4995363;28;20219;-70
2021/05/29 01:01:59;;;;;;;14.77;8.60;;;;;;;8.11;94.85;101597.28;5013193;28;20653;-69
2021/05/29 01:04:25;;;;;;;15.63;8.60;;;;;;;8.14;94.79;101608.69;4995533;28;20197;-70
2021/05/29 01:06:50;;;;;;;14.77;8.70;;;;;;;8.14;94.64;101600.72;5013117;28;20248;-70
2021/05/29 01:09:15;;;;;;;22.00;9.53;;;;;;;8.24;94.41;101604.00;5013161;28;20707;-70
2021/05/29 01:11:41;;;;;;;20.77;9.23;;;;;;;8.26;95.32;101602.16;5013030;28;20228;-70
2021/05/29 01:14:06;;;;;;;14.00;9.60;;;;;;;8.35;94.12;101609.88;4995263;28;20220;-70
2021/05/29 01:16:44;;;;;;;19.17;9.40;;;;;;;8.38;94.48;101608.91;4995405;28;20250;-71
2021/05/29 01:19:13;;;;;;;19.40;9.43;;;;;;;8.45;94.48;101611.31;5013305;28;20153;-70
2021/05/29 01:21:39;;;;;;;17.63;9.60;;;;;;;8.40;95.14;101607.94;5012925;28;20204;-71
2021/05/29 01:24:04;;;;;;;21.20;9.40;;;;;;;8.39;95.33;101608.84;5012826;28;20196;-71
2021/05/29 01:26:30;;;;;;;18.00;10.27;;;;;;;8.51;95.26;101610.25;4979054;28;20177;-71
2021/05/29 01:28:56;;;;;;;19.30;10.57;;;;;;;8.50;94.89;101610.31;5013002;28;20172;-70
2021/05/29 01:31:28;;;;;;;20.60;10.70;;;;;;;8.56;95.51;101602.16;4995592;28;20180;-71
2021/05/29 01:33:58;;;;;;;24.20;11.03;;;;;;;8.46;95.93;101605.06;5022776;23;20773;-73
2021/05/29 01:36:24;;;;;;;19.87;10.27;;;;;;;8.56;95.53;101605.69;5038412;28;20203;-74
2021/05/29 01:38:50;;;;;;;19.83;10.00;;;;;;;8.68;95.27;101604.41;5038714;28;20190;-74
2021/05/29 01:41:17;;;;;;;19.03;11.07;;;;;;;8.63;95.25;101614.34;5021615;28;20601;-71
2021/05/29 01:43:44;;;;;;;23.80;11.50;;;;;;;8.71;95.68;101612.28;5029192;28;20206;-73
2021/05/29 01:46:10;;;;;;;21.13;12.03;;;;;;;8.60;96.47;101614.44;5036215;28;20176;-72
2021/05/29 01:48:43;;;;;;;26.73;12.07;;;;;;;8.55;97.33;101614.59;5019360;28;20179;-72
2021/05/29 01:51:09;;;;;;;18.73;11.97;;;;;;;8.72;96.37;101604.25;5010135;28;20179;-72
2021/05/29 01:53:35;;;;;;;30.00;12.43;;;;;;;8.77;96.25;101609.41;5002037;28;20285;-72
2021/05/29 01:56:01;;;;;;;20.07;12.03;;;;;;;8.88;96.51;101603.72;5018487;28;20227;-72
2021/05/29 01:58:26;;;;;;;26.83;11.57;;;;;;;8.88;96.26;101604.59;5018196;28;20250;-72
2021/05/29 02:00:52;;;;;;;26.43;12.30;;;;;;;8.96;96.22;101599.91;5001768;28;20180;-72
2021/05/29 02:03:17;;;;;;;25.73;12.73;;;;;;;8.98;96.40;101600.72;5017900;28;20207;-72
2021/05/29 02:05:42;;;;;;;23.30;11.83;;;;;;;8.94;96.76;101601.75;5035509;28;20187;-73
2021/05/29 02:08:09;;;;;;;25.57;12.77;;;;;;;8.91;97.03;101603.63;5035615;28;20181;-73
2021/05/29 02:10:36;;;;;;;23.70;13.10;;;;;;;8.94;97.01;101599.09;5001700;28;20670;-72
2021/05/29 02:13:05;;;;;;;24.53;11.80;;;;;;;8.96;97.18;101593.72;5035370;28;20642;-73
2021/05/29 02:15:34;;;;;;;18.03;12.70;;;;;;;9.03;96.69;101593.44;5017878;28;20584;-72
2021/05/29 02:18:04;;;;;;;20.00;12.27;;;;;;;9.13;96.17;101599.31;5001446;28;20246;-72
2021/05/29 02:20:45;;;;;;;16.07;11.83;;;;;;;9.15;95.65;101596.59;5017831;28;20416;-72
2021/05/29 02:23:32;;;;;;;20.57;12.50;;;;;;;9.21;95.38;101591.03;5017583;28;20192;-72
2021/05/29 02:26:02;;;;;;;27.30;13.03;;;;;;;9.18;95.41;101586.69;5007401;28;20242;-72
2021/05/29 02:28:28;;;;;;;23.47;12.33;;;;;;;9.24;96.04;101581.16;5001477;28;20172;-73
2021/05/29 02:30:54;;;;;;;21.13;10.90;;;;;;;9.24;95.01;101582.94;5018142;28;20552;-73
2021/05/29 02:33:22;;;;;;;25.70;12.47;;;;;;;9.31;94.89;101581.81;5035349;28;20207;-72
2021/05/29 02:35:48;;;;;;;26.07;12.67;;;;;;;9.27;94.37;101578.38;5001137;28;20623;-72
2021/05/29 02:38:13;;;;;;;31.73;11.67;;;;;;;9.28;95.60;101581.91;5000856;28;20172;-72
2021/05/29 02:40:38;;;;;;;23.33;11.80;;;;;;;9.26;94.99;101581.97;5001016;28;20225;-72
2021/05/29 02:43:04;;;;;;;23.33;11.70;;;;;;;9.27;95.02;101593.50;5017282;28;20204;-72
2021/05/29 02:45:29;;;;;;;22.37;12.47;;;;;;;9.27;94.81;101586.38;5015968;28;20184;-73
2021/05/29 02:47:54;;;;;;;21.47;11.47;;;;;;;9.16;95.43;101593.88;5017007;28;20540;-73
2021/05/29 02:50:21;;;;;;;26.77;12.47;;;;;;;9.14;96.19;101603.72;5034755;28;20211;-73
2021/05/29 02:52:46;;;;;;;19.03;11.30;;;;;;;9.26;95.10;101597.06;5000531;28;20325;-72
2021/05/29 02:55:15;;;;;;;21.90;11.50;;;;;;;9.33;94.39;101606.63;5035158;28;20590;-72
2021/05/29 02:57:41;;;;;;;22.63;10.97;;;;;;;9.28;94.35;101592.56;5000800;28;20180;-71
2021/05/29 03:00:09;;;;;;;23.57;11.23;;;;;;;9.21;94.61;101599.91;5034603;28;20518;-71
2021/05/29 03:02:34;;;;;;;19.27;10.47;;;;;;;9.21;95.13;101599.03;5016791;28;20248;-72
2021/05/29 03:04:59;;;;;;;15.87;9.70;;;;;;;9.28;94.73;101595.22;5034314;28;20200;-70
2021/05/29 03:07:25;;;;;;;18.47;10.20;;;;;;;9.21;94.58;101609.69;5016958;28;20176;-72
2021/05/29 03:09:50;;;;;;;16.87;10.03;;;;;;;9.28;94.72;101608.53;5016789;28;20638;-73
2021/05/29 03:12:15;;;;;;;18.47;10.17;;;;;;;9.28;93.82;101609.41;5034399;28;20583;-73
2021/05/29 03:14:41;;;;;;;21.23;9.50;;;;;;;9.36;94.63;101595.84;5016522;28;20223;-73
2021/05/29 03:17:06;;;;;;;24.97;9.67;;;;;;;9.42;93.32;101610.75;5000024;28;20200;-72
2021/05/29 03:19:31;;;;;;;18.33;9.47;;;;;;;9.25;94.09;101601.53;5034317;28;20211;-73
2021/05/29 03:21:57;;;;;;;18.60;9.70;;;;;;;9.29;94.04;101611.19;5034267;28;20190;-72
2021/05/29 03:24:22;;;;;;;17.73;9.50;;;;;;;9.33;93.96;101599.50;5016370;28;20567;-74
2021/05/29 03:26:47;;;;;;;13.83;9.33;;;;;;;9.31;93.63;101601.34;5034030;28;20168;-71
2021/05/29 03:29:13;;;;;;;19.23;9.67;;;;;;;9.31;93.72;101604.00;5016192;28;20241;-72
2021/05/29 03:31:38;;;;;;;16.10;9.33;;;;;;;9.36;93.95;101606.50;5000122;28;20655;-72
2021/05/29 03:34:03;;;;;;;17.47;9.63;;;;;;;9.36;93.86;101611.84;5016158;28;20218;-72
2021/05/29 03:36:29;;;;;;;21.87;10.00;;;;;;;9.30;93.86;101615.59;4999942;28;20204;-72
2021/05/29 03:38:54;;;;;;;18.97;9.43;;;;;;;9.29;94.50;101626.28;5016299;28;20195;-72
2021/05/29 03:41:19;;;;;;;16.90;9.27;;;;;;;9.33;94.59;101633.25;5016558;28;20261;-73
2021/05/29 03:43:45;;;;;;;18.90;9.73;;;;;;;9.30;94.10;101630.69;5016414;28;20204;-72
2021/05/29 03:46:10;;;;;;;17.77;9.60;;;;;;;9.25;94.25;101633.50;5033957;28;20181;-73
2021/05/29 03:48:36;;;;;;;19.50;8.90;;;;;;;9.30;93.91;101630.69;5034226;28;20637;-71
2021/05/29 03:51:01;;;;;;;13.83;8.77;;;;;;;9.32;94.18;101631.53;5034241;28;20211;-72
2021/05/29 03:53:27;;;;;;;17.70;9.70;;;;;;;9.49;93.22;101628.25;5016762;28;20230;-73
2021/05/29 03:55:52;;;;;;;17.53;9.53;;;;;;;9.51;93.09;101631.72;5023421;28;20215;-71
2021/05/29 03:58:18;;;;;;;17.50;9.10;;;;;;;9.48;93.29;101638.03;5034682;28;20196;-70
2021/05/29 04:00:43;;;;;;;17.83;9.60;;;;;;;9.47;93.63;101636.28;5016679;28;20544;-71
2021/05/29 04:03:09;;;;;;;23.13;9.67;;;;;;;9.55;93.52;101639.56;4999891;28;20211;-72
2021/05/29 04:05:35;;;;;;;17.10;9.77;;;;;;;9.60;93.34;101636.72;5016371;28;20533;-72
2021/05/29 04:08:00;;;;;;;18.37;9.43;;;;;;;9.59;93.33;101638.50;5015851;28;20172;-71
2021/05/29 04:10:27;;;;;;;19.87;9.63;;;;;;;9.61;93.64;101643.78;4999498;28;20176;-73
2021/05/29 04:12:54;;;;;;;17.87;9.77;;;;;;;9.64;93.35;101649.00;4999282;28;20206;-73
2021/05/29 04:15:19;;;;;;;16.53;9.87;;;;;;;9.70;92.54;101644.34;4999170;28;20199;-71
2021/05/29 04:17:45;;;;;;;20.57;10.57;;;;;;;9.71;93.11;101646.09;4999135;28;20658;-72
2021/05/29 04:20:12;;;;;;;17.80;10.17;;;;;;;9.83;92.42;101639.44;5015599;28;20652;-72
2021/05/29 04:22:38;;;;;;;18.57;11.13;;;;;;;9.91;92.28;101647.13;5015861;28;20180;-72
2021/05/29 04:25:04;;;;;;;16.57;9.50;;;;;;;10.02;90.97;101642.25;5016161;28;20520;-72
2021/05/29 04:27:29;;;;;;;18.43;9.80;;;;;;;9.83;92.17;101642.09;5015449;28;20212;-72
2021/05/29 04:29:55;;;;;;;17.47;10.13;;;;;;;9.99;92.01;101645.03;5033349;28;20230;-73
2021/05/29 04:32:20;;;;;;;17.03;10.27;;;;;;;10.01;90.92;101646.72;5015696;28;20302;-72
2021/05/29 04:34:45;;;;;;;17.37;9.67;;;;;;;10.11;91.61;101641.94;5015232;28;20688;-71
2021/05/29 04:37:13;;;;;;;16.27;9.03;;;;;;;10.12;90.13;101641.00;5032907;28;20200;-72
2021/05/29 04:39:38;;;;;;;19.70;10.20;;;;;;;10.14;89.95;101636.47;4999262;28;20176;-73
2021/05/29 04:42:04;;;;;;;16.60;9.73;;;;;;;10.13;90.11;101648.06;5015372;28;20242;-73
2021/05/29 04:44:29;;;;;;;19.50;9.67;;;;;;;10.20;89.22;101652.28;5033200;28;20603;-70
2021/05/29 04:47:00;;;;;;;27.07;10.17;;;;;;;10.29;89.41;101649.25;5033375;28;20172;-73
2021/05/29 04:49:26;;;;;;;17.93;9.77;;;;;;;10.17;89.57;101649.69;5033239;28;20617;-73
2021/05/29 04:51:51;;;;;;;16.80;9.73;;;;;;;10.25;89.66;101647.63;5032891;28;20171;-71
2021/05/29 04:54:17;;;;;;;15.37;9.07;;;;;;;10.32;89.13;101649.13;5015399;28;20192;-72
2021/05/29 04:56:42;;;;;;;15.43;9.47;;;;;;;10.10;88.87;101644.66;5015168;28;20199;-72
2021/05/29 04:59:08;;;;;;;17.27;9.70;;;;;;;10.30;88.28;101650.13;5032788;28;20644;-72
2021/05/29 05:01:34;;;;;;;16.53;8.83;;;;;;;10.28;88.54;101647.50;5015224;28;20172;-72
2021/05/29 05:04:00;;;;;;;19.53;9.83;;;;;;;10.31;87.67;101651.84;5033343;28;20258;-71
2021/05/29 05:06:26;;;;;;;19.17;9.47;;;;;;;10.25;88.26;101658.31;5014926;28;20177;-70
2021/05/29 05:08:51;;;;;;;18.20;8.60;;;;;;;10.26;87.97;101654.69;5016955;28;20309;-72
2021/05/29 05:11:16;;;;;;;20.47;9.80;;;;;;;10.34;87.43;101660.59;5018885;28;20206;-71
2021/05/29 05:13:42;;;;;;;17.17;9.33;;;;;;;10.45;87.10;101665.53;5036422;28;20188;-72
2021/05/29 05:16:07;;;;;;;21.63;9.63;;;;;;;10.15;88.44;101667.56;5018810;28;20595;-72
2021/05/29 05:18:32;;;;;;;19.23;9.57;;;;;;;10.09;87.74;101678.47;5019095;28;20502;-71
2021/05/29 05:20:57;;;;;;;17.43;9.90;;;;;;;10.06;89.02;101673.25;5036265;28;20222;-72
2021/05/29 05:23:23;;;;;;;21.30;10.27;;;;;;;10.01;88.24;101680.53;5036287;28;20192;-71
2021/05/29 05:25:50;;;;;;;14.23;8.53;;;;;;;10.11;88.95;101679.28;5002080;28;20165;-72
2021/05/29 05:28:15;;;;;;;13.47;9.60;;;;;;;10.24;88.51;101677.03;5002109;28;20552;-72
2021/05/29 05:30:41;;;;;;;20.03;9.50;;;;;;;10.36;87.15;101675.69;5036168;28;20175;-72
2021/05/29 05:33:06;;;;;;;19.93;11.00;;;;;;;10.30;87.84;101675.00;5018204;28;20765;-72
2021/05/29 05:35:32;;;;;;;18.27;10.33;;;;;;;10.12;87.48;101678.34;5035680;28;20193;-71
2021/05/29 05:37:57;;;;;;;21.70;9.77;;;;;;;10.33;87.21;101685.56;5001865;28;20168;-71
2021/05/29 05:40:22;;;;;;;15.90;9.10;;;;;;;10.35;87.61;101680.16;5035927;28;20177;-71
2021/05/29 05:42:48;;;;;;;23.23;10.50;;;;;;;10.27;87.40;101677.78;5017762;28;20168;-71
2021/05/29 05:45:14;;;;;;;19.07;10.03;;;;;;;10.47;87.08;101678.84;5018296;28;20172;-71
2021/05/29 05:47:39;;;;;;;15.67;8.70;;;;;;;10.50;86.71;101679.56;5001656;28;20226;-71
2021/05/29 05:50:06;;;;;;;15.83;9.57;;;;;;;10.56;85.41;101675.78;5018407;28;20553;-69
2021/05/29 05:52:31;;;;;;;16.53;9.20;;;;;;;10.70;85.44;101681.44;5035746;28;20172;-70
2021/05/29 05:54:57;;;;;;;21.53;9.47;;;;;;;10.91;85.05;101683.25;5036264;28;20203;-71
2021/05/29 05:57:22;;;;;;;16.67;9.10;;;;;;;11.17;83.38;101675.97;5019365;28;20202;-70
2021/05/29 05:59:47;;;;;;;16.17;8.60;;;;;;;11.24;82.06;101678.31;5036948;28;20177;-73
2021/05/29 06:02:13;;;;;;;14.00;9.03;;;;;;;11.20;83.63;101674.03;5018570;28;20179;-73
2021/05/29 06:04:38;;;;;;;17.07;9.30;;;;;;;11.31;82.68;101673.59;5035991;28;20513;-69
2021/05/29 06:07:03;;;;;;;13.23;8.97;;;;;;;11.29;81.58;101670.09;5002249;28;20659;-72
2021/05/29 06:09:32;;;;;;;21.73;9.57;;;;;;;11.31;80.89;101668.25;5036172;28;20180;-74
2021/05/29 06:11:57;;;;;;;19.53;9.83;;;;;;;11.23;81.41;101671.25;5036948;28;20180;-74
2021/05/29 06:19:51;;;;;;;19.67;10.00;;;;;;;11.07;82.29;101691.50;5021054;28;20659;-71
2021/05/29 06:22:16;;;;;;;23.53;9.00;;;;;;;11.33;80.39;101689.56;5036043;28;20191;-71
2021/05/29 06:24:41;;;;;;;15.60;8.93;;;;;;;11.19;80.29;101704.38;5002130;28;20192;-71
2021/05/29 06:27:07;;;;;;;16.83;8.97;;;;;;;11.15;81.31;101707.22;5018428;28;20172;-70
2021/05/29 06:29:32;;;;;;;15.63;8.30;;;;;;;11.20;80.99;101703.44;5017791;28;20263;-72
2021/05/29 06:31:57;;;;;;;21.57;9.30;;;;;;;11.22;80.50;101717.59;5035252;28;20255;-71
2021/05/29 06:34:23;;;;;;;16.10;8.57;;;;;;;11.29;79.28;101707.53;5035369;28;20204;-70
2021/05/29 06:36:50;;;;;;;19.37;9.23;;;;;;;11.07;80.79;101706.66;5035243;28;20192;-71
2021/05/29 06:39:15;;;;;;;13.57;8.97;;;;;;;11.10;80.75;101710.06;5017215;28;20183;-72
2021/05/29 06:41:41;;;;;;;13.73;8.67;;;;;;;11.05;81.63;101713.88;5034965;28;20180;-72
2021/05/29 06:44:11;;;;;;;17.37;9.93;;;;;;;10.95;82.40;101708.91;5034669;28;20287;-72
2021/05/29 06:46:36;;;;;;;12.80;8.63;;;;;;;11.07;81.18;101717.34;5017142;28;20167;-73
2021/05/29 06:49:03;;;;;;;18.17;9.70;;;;;;;10.78;82.23;101714.06;5017213;28;20181;-71
2021/05/29 06:51:43;;;;;;;13.90;7.83;;;;;;;10.87;80.76;101708.34;5035099;28;20180;-72
2021/05/29 06:54:18;;;;;;;18.10;8.73;;;;;;;11.02;80.12;101709.53;5019338;28;20199;-71
2021/05/29 06:59:27;;;;;;;15.93;8.57;;;;;;;10.31;82.49;101706.09;5019664;28;20251;-71
2021/05/29 07:01:52;;;;;;;21.87;9.83;;;;;;;10.39;83.44;101715.59;5035129;28;20176;-71
2021/05/29 07:04:18;;;;;;;14.07;8.90;;;;;;;10.39;83.13;101724.47;5034401;28;20192;-72
2021/05/29 07:06:43;;;;;;;14.17;8.73;;;;;;;10.56;82.29;101731.84;5034937;28;20567;-73
2021/05/29 07:09:09;;;;;;;18.33;8.50;;;;;;;10.58;81.10;101716.66;5034354;28;20168;-72
2021/05/29 07:11:37;;;;;;;15.50;9.17;;;;;;;10.62;80.89;101720.94;5034787;28;20176;-72
2021/05/29 07:14:05;;;;;;;11.73;8.00;;;;;;;10.67;80.62;101721.63;5016998;28;20574;-72
2021/05/29 07:16:30;;;;;;;13.03;7.50;;;;;;;11.18;77.58;101721.34;5034610;28;20211;-73
2021/05/29 07:18:55;;;;;;;12.00;8.00;;;;;;;11.13;78.59;101723.31;5034225;28;20168;-72
2021/05/29 07:21:20;;;;;;;13.07;7.43;;;;;;;10.99;79.04;101727.47;5016688;28;20671;-71
2021/05/29 07:23:46;;;;;;;12.77;7.70;;;;;;;10.92;78.58;101729.53;5034213;28;20246;-71
2021/05/29 07:26:12;;;;;;;14.60;7.47;;;;;;;10.94;79.45;101728.53;5034047;28;20161;-71
2021/05/29 07:28:37;;;;;;;15.70;8.10;;;;;;;10.67;80.09;101732.28;5016589;28;20180;-71
2021/05/29 07:31:03;;;;;;;17.40;7.87;;;;;;;10.95;79.95;101729.41;5033851;28;20259;-71
2021/05/29 07:33:28;;;;;;;16.77;7.33;;;;;;;11.26;78.66;101739.72;5053356;22;20271;-69
2021/05/29 07:35:54;;;;;;;15.80;7.80;;;;;;;11.44;78.39;101732.72;4996750;28;20283;-70
2021/05/29 07:38:20;;;;;;;12.40;6.97;;;;;;;11.58;77.64;101738.38;4996888;28;20199;-69
2021/05/29 07:40:46;;;;;;;10.00;7.03;;;;;;;12.02;77.09;101738.28;4996597;28;20199;-70
2021/05/29 07:43:11;;;;;;;13.57;7.53;;;;;;;12.03;76.10;101735.53;4980371;28;20275;-70
2021/05/29 07:45:36;;;;;;;12.20;6.97;;;;;;;12.07;75.35;101734.44;4996933;28;20169;-70
2021/05/29 07:48:02;;;;;;;13.87;6.87;;;;;;;11.86;75.90;101740.72;4996785;28;20208;-69
2021/05/29 07:50:27;;;;;;;13.93;7.17;;;;;;;11.82;75.67;101728.44;4996316;28;20687;-69
2021/05/29 07:52:53;;;;;;;13.70;6.83;;;;;;;11.52;77.24;101735.94;4996337;28;20208;-69
2021/05/29 07:55:18;;;;;;;14.80;7.83;;;;;;;11.53;76.67;101735.91;5013676;28;20189;-70
2021/05/29 07:57:43;;;;;;;13.83;7.47;;;;;;;11.96;75.83;101743.91;4980019;28;20169;-70
2021/05/29 08:00:11;;;;;;;14.07;7.60;;;;;;;11.57;77.44;101739.31;5014361;28;20645;-69
2021/05/29 08:02:38;;;;;;;20.20;6.57;;;;;;;11.98;75.92;101747.38;4996987;28;20196;-69
2021/05/29 08:05:05;;;;;;;13.93;6.90;;;;;;;11.97;75.26;101751.84;4996436;28;20192;-69
2021/05/29 08:07:30;;;;;;;12.17;6.37;;;;;;;12.19;74.99;101741.03;4996679;28;20165;-70
2021/05/29 08:09:58;;;;;;;16.33;7.47;;;;;;;11.04;78.52;101742.38;5013821;28;20173;-70
2021/05/29 08:12:24;;;;;;;11.23;6.57;;;;;;;11.44;77.79;101749.63;4996100;28;20177;-70
2021/05/29 08:14:49;;;;;;;11.20;7.07;;;;;;;12.01;75.69;101750.78;4995979;28;20188;-69
2021/05/29 08:17:15;;;;;;;13.00;6.33;;;;;;;11.93;75.93;101747.59;4979739;28;20546;-69
2021/05/29 08:19:40;;;;;;;13.90;6.60;;;;;;;12.10;75.16;101760.19;4996122;28;20180;-69
2021/05/29 08:22:05;;;;;;;11.77;6.67;;;;;;;12.21;74.98;101757.91;4979864;28;20191;-69
2021/05/29 08:24:31;;;;;;;16.33;7.33;;;;;;;12.42;74.38;101761.44;5013667;28;20266;-69
2021/05/29 08:26:56;;;;;;;14.03;6.80;;;;;;;12.82;71.54;101755.94;4996355;28;20196;-69
2021/05/29 08:29:21;;;;;;;11.77;5.47;;;;;;;13.35;70.41;101759.66;4996035;28;20177;-70
2021/05/29 08:31:47;;;;;;;12.83;5.83;;;;;;;12.98;70.42;101749.84;5014048;28;20187;-70
2021/05/29 08:34:14;;;;;;;10.50;6.47;;;;;;;13.66;67.18;101753.63;4995588;28;20677;-70
2021/05/29 08:36:40;;;;;;;11.07;6.03;;;;;;;13.22;68.82;101758.53;4996203;28;20565;-70
2021/05/29 08:39:07;;;;;;;11.77;5.70;;;;;;;14.01;66.55;101749.97;4995455;28;20598;-69
2021/05/29 08:41:34;;;;;;;13.13;6.80;;;;;;;13.70;67.42;101744.47;5013374;28;20263;-69
2021/05/29 08:43:59;;;;;;;10.87;5.70;;;;;;;14.17;65.66;101744.69;4998237;28;20648;-69
2021/05/29 08:46:25;;;;;;;15.23;8.23;;;;;;;13.94;66.27;101745.88;5018214;28;20169;-70
2021/05/29 08:48:52;;;;;;;12.57;6.47;;;;;;;13.90;66.61;101746.13;5000178;28;20173;-69
2021/05/29 08:51:18;;;;;;;11.20;5.97;;;;;;;14.52;64.36;101750.00;5017419;28;20172;-69
2021/05/29 08:53:47;;;;;;;10.40;6.33;;;;;;;14.60;64.11;101750.44;5017060;28;20199;-70
2021/05/29 08:56:14;;;;;;;12.90;5.60;;;;;;;14.58;64.65;101745.13;5017174;28;20216;-70
2021/05/29 08:58:39;;;;;;;13.87;6.73;;;;;;;15.01;63.70;101743.59;4999415;28;20177;-69
2021/05/29 09:01:05;;;;;;;12.03;7.10;;;;;;;14.82;63.60;101737.50;5017359;28;20183;-69
2021/05/29 09:03:59;;;;;;;14.90;7.50;;;;;;;14.63;64.66;101761.00;5018073;28;20226;-69
2021/05/29 09:06:27;;;;;;;14.50;6.90;;;;;;;14.62;63.24;101752.06;5000078;28;20211;-69
2021/05/29 09:08:54;;;;;;;11.63;7.03;;;;;;;14.58;64.54;101744.28;5016941;28;20223;-69
2021/05/29 09:11:48;;;;;;;16.43;7.40;;;;;;;14.22;64.80;101747.09;5017341;28;20183;-69
2021/05/29 09:14:26;;;;;;;12.80;6.80;;;;;;;14.21;66.17;101751.63;5016663;28;20181;-69
2021/05/29 09:17:19;;;;;;;11.70;6.80;;;;;;;14.80;64.65;101750.16;5016867;28;20242;-69
2021/05/29 09:20:03;;;;;;;11.33;6.90;;;;;;;14.89;62.72;101749.69;5000102;28;20175;-69
2021/05/29 09:22:36;;;;;;;12.53;7.37;;;;;;;14.99;63.26;101755.41;5017116;28;20529;-69
2021/05/29 09:25:09;;;;;;;13.93;6.73;;;;;;;15.19;62.03;101751.53;4999282;28;20212;-69
2021/05/29 09:27:36;;;;;;;11.83;7.40;;;;;;;14.05;64.90;101756.91;5017195;28;20164;-68
2021/05/29 09:30:07;;;;;;;11.63;7.57;;;;;;;14.00;65.92;101758.97;5016957;28;20169;-69
2021/05/29 09:32:34;;;;;;;9.83;5.97;;;;;;;15.17;63.68;101748.09;4999372;28;20185;-69
2021/05/29 09:35:06;;;;;;;10.90;6.63;;;;;;;14.54;64.44;101748.94;5016410;28;20208;-70
2021/05/29 09:37:31;;;;;;;15.00;7.00;;;;;;;14.09;65.51;101758.47;4999023;28;20189;-69
2021/05/29 09:39:59;;;;;;;13.53;6.60;;;;;;;14.78;63.24;101752.09;5016349;28;20177;-69
2021/05/29 09:42:38;;;;;;;12.53;7.07;;;;;;;14.23;64.35;101744.34;5016594;28;20224;-70
2021/05/29 09:45:26;;;;;;;11.03;6.50;;;;;;;14.42;64.01;101744.19;4999486;28;20196;-69
2021/05/29 09:48:31;;;;;;;12.00;7.27;;;;;;;14.87;64.00;101740.84;4999266;28;20244;-69
2021/05/29 09:51:06;;;;;;;11.53;6.30;;;;;;;15.38;62.60;101751.38;4956269;29;20210;-70
2021/05/29 09:53:52;;;;;;;14.63;7.00;;;;;;;15.38;61.00;101744.16;4955432;28;20202;-70
2021/05/29 09:56:28;;;;;;;9.97;5.77;;;;;;;16.10;60.60;101745.25;4996770;28;20312;-69
2021/05/29 09:58:54;;;;;;;12.97;6.50;;;;;;;16.05;60.99;101747.38;5016131;28;20169;-69
2021/05/29 10:01:48;;;;;;;9.90;5.87;;;;;;;15.84;60.60;101745.00;5016459;28;20188;-69
2021/05/29 10:04:31;;;;;;;11.53;6.47;;;;;;;15.56;61.46;101751.13;4999463;28;20526;-69
2021/05/29 10:06:58;;;;;;;13.83;6.90;;;;;;;14.98;63.03;101751.84;5016451;28;20676;-68
2021/05/29 10:09:23;;;;;;;11.87;6.27;;;;;;;15.06;62.29;101762.16;5015669;28;20235;-69
2021/05/29 10:11:49;;;;;;;10.37;6.10;;;;;;;15.50;60.49;101753.31;5015717;28;20176;-69
2021/05/29 10:14:14;;;;;;;9.97;5.97;;;;;;;14.88;63.02;101739.88;4998305;28;20193;-69
2021/05/29 10:16:39;;;;;;;9.73;5.77;;;;;;;14.96;61.68;101764.50;4981732;28;20199;-70
2021/05/29 10:19:06;;;;;;;9.40;5.97;;;;;;;14.48;64.33;101754.63;4998309;28;20200;-68
2021/05/29 10:21:32;;;;;;;12.33;6.10;;;;;;;15.21;62.63;101761.25;4998428;28;20637;-71
2021/05/29 10:24:00;;;;;;;11.47;5.53;;;;;;;15.63;61.34;101759.78;4997960;28;20203;-70
2021/05/29 10:26:27;;;;;;;16.70;5.67;;;;;;;15.57;60.24;101765.44;5015922;28;20537;-69
2021/05/29 10:28:53;;;;;;;9.77;5.67;;;;;;;14.97;61.03;101763.53;4997960;28;20169;-69
2021/05/29 10:31:18;;;;;;;13.43;6.47;;;;;;;15.50;60.14;101764.09;5015603;28;20585;-69
2021/05/29 10:33:45;;;;;;;11.10;5.20;;;;;;;15.86;59.40;101769.13;4997327;28;20542;-70
2021/05/29 10:36:45;;;;;;;11.93;5.80;;;;;;;16.01;58.46;101767.38;5015216;28;20589;-70
2021/05/29 10:39:22;;;;;;;14.93;5.77;;;;;;;15.54;60.10;101769.19;4998287;28;20540;-69
2021/05/29 10:42:04;;;;;;;11.27;6.30;;;;;;;15.64;60.01;101774.97;4997856;28;20164;-69
2021/05/29 10:44:36;;;;;;;11.97;6.50;;;;;;;16.21;58.68;101775.94;4997941;28;20193;-69
2021/05/29 10:47:08;;;;;;;11.93;6.07;;;;;;;15.80;59.99;101770.38;4997714;28;20185;-69
2021/05/29 10:49:51;;;;;;;10.17;5.73;;;;;;;15.37;61.84;101772.00;5015123;28;20180;-69
2021/05/29 10:52:36;;;;;;;9.67;5.97;;;;;;;15.79;58.10;101767.78;5014810;28;20649;-69
2021/05/29 10:55:16;;;;;;;10.67;5.90;;;;;;;16.04;58.14;101775.25;5014834;28;20280;-70
2021/05/29 10:57:55;;;;;;;13.30;6.17;;;;;;;15.73;59.28;101774.41;5014745;28;20189;-70
2021/05/29 11:00:35;;;;;;;12.57;6.20;;;;;;;14.98;61.84;101772.47;5015464;28;20173;-69
2021/05/29 11:03:16;;;;;;;11.43;5.97;;;;;;;15.30;62.54;101774.19;5014563;28;20173;-69
2021/05/29 11:05:42;;;;;;;12.33;6.27;;;;;;;15.38;60.10;101767.50;5013643;28;20195;-69
2021/05/29 11:08:44;;;;;;;12.57;6.30;;;;;;;14.61;62.51;101779.91;5014820;28;20657;-69
2021/05/29 11:11:38;;;;;;;15.70;6.60;;;;;;;14.47;63.89;101779.75;5014826;28;20168;-69
2021/05/29 11:14:05;;;;;;;12.93;6.47;;;;;;;14.59;63.61;101778.25;5014422;28;20267;-69
2021/05/29 11:16:45;;;;;;;10.23;5.70;;;;;;;15.16;61.04;101779.47;5014400;28;20193;-69
2021/05/29 11:19:11;;;;;;;10.97;5.40;;;;;;;15.00;60.36;101784.00;5014133;28;20182;-69
2021/05/29 11:22:06;;;;;;;14.17;5.83;;;;;;;15.02;61.28;101779.41;4996777;28;20169;-69
2021/05/29 11:24:36;;;;;;;13.93;6.33;;;;;;;14.69;63.17;101790.22;5014101;28;20236;-69
2021/05/29 11:27:05;;;;;;;9.30;5.73;;;;;;;15.09;60.76;101779.94;5014187;28;20215;-70
2021/05/29 11:29:49;;;;;;;13.20;5.57;;;;;;;15.73;59.71;101779.78;4997315;28;20273;-69
2021/05/29 11:32:15;;;;;;;11.07;5.10;;;;;;;15.91;58.86;101783.19;5014840;28;20169;-69